createdAt,value
2023-02-17T00:00:19.372Z,97291.09
2023-02-17T00:02:57.166Z,97288.59
2023-02-17T00:05:30.111Z,97283.59
2023-02-17T00:08:03.043Z,97287.22
2023-02-17T00:10:37.696Z,97283.19
2023-02-17T00:13:10.646Z,97284.78
2023-02-17T00:15:43.558Z,97283.69
2023-02-17T00:18:16.492Z,97287.63
2023-02-17T00:20:49.397Z,97295.34
2023-02-17T00:23:22.282Z,97293.16
2023-02-17T00:25:56.559Z,97296.81
2023-02-17T00:28:29.449Z,97293.84
2023-02-17T00:31:07.598Z,97305.03
2023-02-17T00:33:40.553Z,97297.00
2023-02-17T00:36:17.797Z,97300.47
2023-02-17T00:38:50.781Z,97306.09
2023-02-17T00:41:26.566Z,97306.31
2023-02-17T00:44:00.113Z,97309.28
2023-02-17T00:46:33.136Z,97309.56
2023-02-17T00:49:06.007Z,97305.16
2023-02-17T00:51:38.865Z,97306.81
2023-02-17T00:54:11.904Z,97305.03
2023-02-17T00:56:46.574Z,97304.34
2023-02-17T00:59:19.604Z,97306.09
2023-02-17T01:01:52.547Z,97309.97
2023-02-17T01:04:25.612Z,97301.84
2023-02-17T01:06:58.617Z,97318.53
2023-02-17T01:09:31.589Z,97311.19
2023-02-17T01:12:06.120Z,97323.06
2023-02-17T01:14:39.307Z,97316.81
2023-02-17T01:17:12.272Z,97321.22
2023-02-17T01:19:45.163Z,97318.63
2023-02-17T01:22:18.057Z,97316.13
2023-02-17T01:24:50.974Z,97321.03
2023-02-17T01:27:25.298Z,97319.53
2023-02-17T01:29:58.540Z,97315.38
2023-02-17T01:32:31.418Z,97315.66
2023-02-17T01:35:04.327Z,97312.19
2023-02-17T01:37:37.256Z,97304.22
2023-02-17T01:40:10.965Z,97310.84
2023-02-17T01:42:45.414Z,97313.94
2023-02-17T01:45:41.732Z,97310.09
2023-02-17T01:48:17.839Z,97307.31
2023-02-17T01:50:55.654Z,97299.25
2023-02-17T01:53:34.643Z,97301.53
2023-02-17T01:56:09.255Z,97293.94
2023-02-17T01:58:46.821Z,97295.94
2023-02-17T02:01:19.790Z,97296.38
2023-02-17T02:03:53.603Z,97304.50
2023-02-17T02:06:29.488Z,97295.34
2023-02-17T02:09:06.140Z,97295.44
2023-02-17T02:11:39.238Z,97286.06
2023-02-17T02:14:14.101Z,97281.91
2023-02-17T02:16:56.222Z,97272.50
2023-02-17T02:20:01.865Z,97277.47
2023-02-17T02:22:49.421Z,97275.56
2023-02-17T02:25:42.848Z,97277.34
2023-02-17T02:28:28.589Z,97280.50
2023-02-17T02:31:20.894Z,97289.03
2023-02-17T02:33:59.265Z,97277.22
2023-02-17T02:36:35.559Z,97284.94
2023-02-17T02:39:12.767Z,97282.78
2023-02-17T02:41:49.020Z,97278.22
2023-02-17T02:44:23.220Z,97280.91
2023-02-17T02:46:59.613Z,97271.81
2023-02-17T02:49:37.250Z,97278.44
2023-02-17T02:52:18.924Z,97274.34
2023-02-17T02:55:01.070Z,97271.69
2023-02-17T02:57:44.208Z,97263.38
2023-02-17T03:00:26.348Z,97272.69
2023-02-17T03:03:04.427Z,97270.50
2023-02-17T03:05:50.726Z,97271.47
2023-02-17T03:08:32.887Z,97269.47
2023-02-17T03:11:06.192Z,97268.91
2023-02-17T03:13:39.643Z,97265.00
2023-02-17T03:16:14.792Z,97265.72
2023-02-17T03:18:48.509Z,97259.94
2023-02-17T03:21:23.276Z,97262.50
2023-02-17T03:23:56.248Z,97257.56
2023-02-17T03:26:29.289Z,97255.53
2023-02-17T03:29:02.344Z,97253.81
2023-02-17T03:31:36.209Z,97268.06
2023-02-17T03:34:09.789Z,97261.00
2023-02-17T03:36:44.110Z,97258.69
2023-02-17T03:39:17.393Z,97262.03
2023-02-17T03:41:51.686Z,97262.44
2023-02-17T03:44:24.552Z,97269.22
2023-02-17T03:46:57.469Z,97266.41
2023-02-17T03:49:30.583Z,97258.28
2023-02-17T03:52:05.413Z,97266.19
2023-02-17T03:54:38.335Z,97262.31
2023-02-17T03:57:11.271Z,97256.63
2023-02-17T03:59:44.214Z,97266.44
2023-02-17T04:02:17.165Z,97266.59
2023-02-17T04:04:50.233Z,97263.00
2023-02-17T04:07:24.603Z,97263.50
2023-02-17T04:09:57.492Z,97264.44
2023-02-17T04:12:30.896Z,97266.03
2023-02-17T04:15:03.933Z,97270.78
2023-02-17T04:17:37.690Z,97273.91
2023-02-17T04:20:11.548Z,97281.03
2023-02-17T04:22:46.382Z,97279.63
2023-02-17T04:25:19.606Z,97272.41
2023-02-17T04:27:52.449Z,97276.31
2023-02-17T04:30:25.420Z,97274.13
2023-02-17T04:32:58.582Z,97279.97
2023-02-17T04:35:31.674Z,97271.63
2023-02-17T04:38:08.737Z,97279.81
2023-02-17T04:40:41.769Z,97278.72
2023-02-17T04:43:14.634Z,97266.94
2023-02-17T04:45:47.513Z,97273.88
2023-02-17T04:48:20.966Z,97274.34
2023-02-17T04:50:54.114Z,97273.56
2023-02-17T04:53:28.696Z,97276.69
2023-02-17T04:56:01.668Z,97277.81
2023-02-17T04:58:34.523Z,97278.63
2023-02-17T05:01:07.572Z,97283.63
2023-02-17T05:03:40.524Z,97273.25
2023-02-17T05:06:13.447Z,97264.09
2023-02-17T05:08:50.615Z,97267.25
2023-02-17T05:11:23.520Z,97265.69
2023-02-17T05:13:56.643Z,97269.16
2023-02-17T05:16:29.515Z,97266.78
2023-02-17T05:19:02.414Z,97272.91
2023-02-17T05:21:35.405Z,97262.69
2023-02-17T05:24:09.803Z,97259.72
2023-02-17T05:26:42.652Z,97261.91
2023-02-17T05:29:15.716Z,97261.28
2023-02-17T05:31:48.732Z,97259.09
2023-02-17T05:34:21.676Z,97254.19
2023-02-17T05:36:54.614Z,97258.94
2023-02-17T05:39:29.078Z,97254.88
2023-02-17T05:42:02.062Z,97253.44
2023-02-17T05:44:34.930Z,97251.25
2023-02-17T05:47:07.850Z,97255.69
2023-02-17T05:49:40.721Z,97250.78
2023-02-17T05:52:13.684Z,97251.25
2023-02-17T05:54:48.117Z,97262.16
2023-02-17T05:57:21.385Z,97262.94
2023-02-17T05:59:54.321Z,97259.63
2023-02-17T06:02:27.262Z,97260.91
2023-02-17T06:05:00.579Z,97263.28
2023-02-17T06:07:33.527Z,97263.41
2023-02-17T06:10:09.807Z,97261.22
2023-02-17T06:12:42.798Z,97259.63
2023-02-17T06:15:15.857Z,97253.97
2023-02-17T06:17:48.800Z,97260.91
2023-02-17T06:20:21.986Z,97264.88
2023-02-17T06:22:54.850Z,97257.63
2023-02-17T06:25:29.131Z,97271.47
2023-02-17T06:28:02.187Z,97261.88
2023-02-17T06:30:35.231Z,97260.75
2023-02-17T06:33:08.109Z,97267.69
2023-02-17T06:35:41.156Z,97268.03
2023-02-17T06:38:14.105Z,97272.59
2023-02-17T06:40:48.486Z,97276.84
2023-02-17T06:43:21.528Z,97282.19
2023-02-17T06:45:54.635Z,97283.63
2023-02-17T06:48:27.517Z,97287.91
2023-02-17T06:51:00.758Z,97293.25
2023-02-17T06:53:33.638Z,97284.41
2023-02-17T06:56:08.550Z,97292.16
2023-02-17T06:58:41.493Z,97290.56
2023-02-17T07:01:18.940Z,97298.75
2023-02-17T07:03:51.795Z,97301.75
2023-02-17T07:06:25.850Z,97304.13
2023-02-17T07:08:58.805Z,97301.94
2023-02-17T07:11:33.243Z,97308.56
2023-02-17T07:14:06.858Z,97316.28
2023-02-17T07:16:40.160Z,97309.50
2023-02-17T07:19:13.459Z,97312.06
2023-02-17T07:21:46.720Z,97306.84
2023-02-17T07:24:19.826Z,97305.63
2023-02-17T07:26:56.267Z,97305.16
2023-02-17T07:29:29.342Z,97307.66
2023-02-17T07:32:02.738Z,97309.88
2023-02-17T07:34:35.923Z,97309.13
2023-02-17T07:37:09.365Z,97310.22
2023-02-17T07:39:42.269Z,97312.91
2023-02-17T07:42:16.896Z,97311.78
2023-02-17T07:44:49.925Z,97306.72
2023-02-17T07:47:22.801Z,97321.72
2023-02-17T07:49:55.959Z,97306.69
2023-02-17T07:52:28.976Z,97315.53
2023-02-17T07:55:01.845Z,97322.78
2023-02-17T07:57:36.138Z,97313.13
2023-02-17T08:00:10.991Z,97320.69
2023-02-17T08:02:44.044Z,97320.19
2023-02-17T08:05:17.029Z,97317.00
2023-02-17T08:08:09.962Z,97311.97
2023-02-17T08:11:00.668Z,97323.47
2023-02-17T08:13:35.041Z,97328.81
2023-02-17T08:16:08.340Z,97331.78
2023-02-17T08:18:41.408Z,97338.22
2023-02-17T08:21:14.258Z,97337.38
2023-02-17T08:23:47.250Z,97343.81
2023-02-17T08:26:20.656Z,97337.94
2023-02-17T08:28:54.992Z,97347.53
2023-02-17T08:31:30.787Z,97357.00
2023-02-17T08:34:08.045Z,97355.38
2023-02-17T08:36:41.293Z,97364.34
2023-02-17T08:39:18.255Z,97361.13
2023-02-17T08:41:51.573Z,97362.41
2023-02-17T08:44:26.062Z,97370.28
2023-02-17T08:46:58.902Z,97371.66
2023-02-17T08:49:32.814Z,97372.25
2023-02-17T08:52:06.102Z,97379.41
2023-02-17T08:54:39.455Z,97377.59
2023-02-17T08:57:12.429Z,97387.09
2023-02-17T08:59:48.175Z,97390.34
2023-02-17T09:02:21.284Z,97387.00
2023-02-17T09:04:54.450Z,97384.91
2023-02-17T09:07:27.802Z,97385.47
2023-02-17T09:10:01.519Z,97394.59
2023-02-17T09:12:34.607Z,97391.72
2023-02-17T09:15:10.313Z,97393.22
2023-02-17T09:17:43.246Z,97392.34
2023-02-17T09:20:24.790Z,97391.94
2023-02-17T09:22:58.263Z,97392.75
2023-02-17T09:25:31.167Z,97393.22
2023-02-17T09:28:04.193Z,97389.16
2023-02-17T09:30:38.934Z,97393.09
2023-02-17T09:33:11.930Z,97396.47
2023-02-17T09:35:45.182Z,97395.59
2023-02-17T09:38:18.067Z,97390.84
2023-02-17T09:40:51.549Z,97399.50
2023-02-17T09:43:29.872Z,97401.66
2023-02-17T09:46:11.031Z,97403.00
2023-02-17T09:48:45.279Z,97409.97
2023-02-17T09:51:24.086Z,97419.41
2023-02-17T09:54:05.937Z,97411.44
2023-02-17T09:56:40.049Z,97418.84
2023-02-17T09:59:17.748Z,97420.19
2023-02-17T10:01:54.793Z,97412.19
2023-02-17T10:04:32.926Z,97409.63
2023-02-17T10:07:12.684Z,97403.63
2023-02-17T10:09:51.566Z,97399.16
2023-02-17T10:12:28.556Z,97403.53
2023-02-17T10:15:06.529Z,97409.47
2023-02-17T10:17:47.226Z,97416.56
2023-02-17T10:20:24.739Z,97406.56
2023-02-17T10:23:04.413Z,97408.81
2023-02-17T10:25:52.383Z,97404.19
2023-02-17T10:28:39.759Z,97414.09
2023-02-17T10:31:16.441Z,97415.25
2023-02-17T10:33:57.654Z,97417.94
2023-02-17T10:36:41.202Z,97409.84
2023-02-17T10:39:30.504Z,97419.84
2023-02-17T10:42:05.314Z,97413.75
2023-02-17T10:44:39.259Z,97419.28
2023-02-17T10:47:12.591Z,97409.00
2023-02-17T10:49:50.772Z,97410.78
2023-02-17T10:52:25.622Z,97407.16
2023-02-17T10:55:11.296Z,97403.16
2023-02-17T10:57:53.187Z,97401.44
2023-02-17T11:00:26.997Z,97399.84
2023-02-17T11:03:00.128Z,97399.34
2023-02-17T11:05:36.009Z,97399.97
2023-02-17T11:08:30.080Z,97389.00
2023-02-17T11:11:06.675Z,97380.63
2023-02-17T11:13:45.336Z,97375.78
2023-02-17T11:16:26.710Z,97375.50
2023-02-17T11:18:59.804Z,97375.16
2023-02-17T11:21:34.815Z,97367.91
2023-02-17T11:24:08.156Z,97366.44
2023-02-17T11:26:41.081Z,97361.00
2023-02-17T11:29:18.364Z,97363.81
2023-02-17T11:31:56.116Z,97371.59
2023-02-17T11:34:33.024Z,97361.13
2023-02-17T11:37:22.076Z,97351.50
2023-02-17T11:39:56.837Z,97352.28
2023-02-17T11:42:31.914Z,97351.06
2023-02-17T11:45:18.433Z,97353.84
2023-02-17T11:48:06.159Z,97343.81
2023-02-17T11:50:48.160Z,97338.06
2023-02-17T11:53:34.713Z,97335.44
2023-02-17T11:56:16.111Z,97327.41
2023-02-17T11:59:12.944Z,97335.25
2023-02-17T12:02:26.333Z,97336.91
2023-02-17T12:05:15.361Z,97332.38
2023-02-17T12:08:00.764Z,97335.94
2023-02-17T12:10:47.625Z,97330.94
2023-02-17T12:13:32.486Z,97327.47
2023-02-17T12:16:30.165Z,97319.00
2023-02-17T12:19:11.452Z,97321.69
2023-02-17T12:22:03.018Z,97320.91
2023-02-17T12:24:54.703Z,97325.19
2023-02-17T12:27:43.467Z,97326.75
2023-02-17T12:30:27.878Z,97320.19
2023-02-17T12:33:20.195Z,97321.41
2023-02-17T12:35:56.287Z,97320.72
2023-02-17T12:38:33.280Z,97322.69
2023-02-17T12:41:11.280Z,97324.78
2023-02-17T12:43:49.451Z,97320.94
2023-02-17T12:46:27.080Z,97314.03
2023-02-17T12:49:07.486Z,97316.72
2023-02-17T12:51:46.431Z,97315.16
2023-02-17T12:54:25.743Z,97312.03
2023-02-17T12:57:09.170Z,97309.34
2023-02-17T12:59:45.669Z,97309.34
2023-02-17T13:02:19.967Z,97313.22
2023-02-17T13:04:54.860Z,97312.97
2023-02-17T13:07:40.832Z,97309.66
2023-02-17T13:10:29.294Z,97317.88
2023-02-17T13:13:07.476Z,97309.00
2023-02-17T13:15:44.067Z,97305.59
2023-02-17T13:18:29.986Z,97312.63
2023-02-17T13:21:16.173Z,97313.44
2023-02-17T13:24:00.806Z,97305.38
2023-02-17T13:26:35.466Z,97305.72
2023-02-17T13:29:23.164Z,97308.53
2023-02-17T13:31:59.813Z,97304.25
2023-02-17T13:34:36.100Z,97296.91
2023-02-17T13:37:28.384Z,97299.25
2023-02-17T13:40:02.163Z,97299.63
2023-02-17T13:42:38.409Z,97299.25
2023-02-17T13:45:26.549Z,97304.31
2023-02-17T13:48:12.432Z,97301.19
2023-02-17T13:50:47.571Z,97299.63
2023-02-17T13:53:28.680Z,97296.56
2023-02-17T13:56:04.911Z,97305.81
2023-02-17T13:58:40.475Z,97298.03
2023-02-17T14:01:17.667Z,97299.19
2023-02-17T14:03:54.266Z,97296.81
2023-02-17T14:06:30.639Z,97296.38
2023-02-17T14:09:13.320Z,97294.84
2023-02-17T14:11:46.349Z,97299.75
2023-02-17T14:14:19.724Z,97291.56
2023-02-17T14:17:01.854Z,97298.13
2023-02-17T14:19:45.996Z,97283.34
2023-02-17T14:22:28.912Z,97291.38
2023-02-17T14:25:04.518Z,97299.44
2023-02-17T14:27:48.573Z,97301.34
2023-02-17T14:30:30.624Z,97299.00
2023-02-17T14:33:06.276Z,97303.19
2023-02-17T14:35:51.494Z,97309.41
2023-02-17T14:38:26.912Z,97299.63
2023-02-17T14:41:01.291Z,97306.53
2023-02-17T14:43:34.670Z,97300.63
2023-02-17T14:46:07.854Z,97300.53
2023-02-17T14:48:40.909Z,97289.66
2023-02-17T14:51:17.184Z,97300.03
2023-02-17T14:53:51.345Z,97307.28
2023-02-17T14:56:27.704Z,97298.31
2023-02-17T14:59:00.881Z,97297.44
2023-02-17T15:01:33.960Z,97298.50
2023-02-17T15:04:06.989Z,97301.13
2023-02-17T15:06:43.561Z,97302.19
2023-02-17T15:09:18.466Z,97297.03
2023-02-17T15:11:51.863Z,97301.59
2023-02-17T15:14:24.750Z,97306.13
2023-02-17T15:16:57.757Z,97301.78
2023-02-17T15:19:30.685Z,97304.03
2023-02-17T15:22:06.891Z,97308.66
2023-02-17T15:24:41.071Z,97305.06
2023-02-17T15:27:17.420Z,97302.75
2023-02-17T15:29:50.391Z,97295.75
2023-02-17T15:32:24.121Z,97298.81
2023-02-17T15:34:57.860Z,97293.31
2023-02-17T15:37:32.522Z,97297.50
2023-02-17T15:40:05.992Z,97298.50
2023-02-17T15:42:39.026Z,97302.28
2023-02-17T15:45:15.171Z,97304.44
2023-02-17T15:47:49.360Z,97304.63
2023-02-17T15:50:23.807Z,97292.75
2023-02-17T15:52:58.128Z,97287.41
2023-02-17T15:55:31.070Z,97288.97
2023-02-17T15:58:05.550Z,97286.56
2023-02-17T16:00:38.402Z,97283.38
2023-02-17T16:03:13.517Z,97285.56
2023-02-17T16:05:46.651Z,97286.94
2023-02-17T16:08:21.108Z,97286.09
2023-02-17T16:10:55.600Z,97295.22
2023-02-17T16:13:28.983Z,97293.53
2023-02-17T16:16:01.899Z,97293.75
2023-02-17T16:18:34.808Z,97295.88
2023-02-17T16:21:07.766Z,97302.66
2023-02-17T16:23:42.970Z,97296.03
2023-02-17T16:26:21.022Z,97303.16
2023-02-17T16:28:54.560Z,97303.47
2023-02-17T16:31:27.654Z,97295.66
2023-02-17T16:34:00.584Z,97297.19
2023-02-17T16:36:36.538Z,97291.41
2023-02-17T16:39:14.819Z,97294.81
2023-02-17T16:41:48.325Z,97294.72
2023-02-17T16:44:23.241Z,97292.00
2023-02-17T16:46:57.320Z,97293.94
2023-02-17T16:49:33.498Z,97298.44
2023-02-17T16:52:08.236Z,97297.25
2023-02-17T16:54:42.480Z,97303.78
2023-02-17T16:57:18.388Z,97310.31
2023-02-17T16:59:51.317Z,97318.41
2023-02-17T17:02:24.315Z,97315.75
2023-02-17T17:04:57.241Z,97320.03
2023-02-17T17:07:31.906Z,97315.47
2023-02-17T17:10:16.392Z,97318.63
2023-02-17T17:12:50.695Z,97328.59
2023-02-17T17:15:24.175Z,97331.28
2023-02-17T17:17:59.279Z,97332.56
2023-02-17T17:20:35.466Z,97346.50
2023-02-17T17:23:11.980Z,97333.88
2023-02-17T17:25:48.568Z,97336.69
2023-02-17T17:28:21.545Z,97334.81
2023-02-17T17:30:54.523Z,97338.78
2023-02-17T17:33:27.534Z,97334.69
2023-02-17T17:36:00.377Z,97331.03
2023-02-17T17:38:33.295Z,97337.19
2023-02-17T17:41:07.665Z,97325.84
2023-02-17T17:43:40.941Z,97328.50
2023-02-17T17:46:16.518Z,97326.44
2023-02-17T17:48:50.004Z,97334.97
2023-02-17T17:51:24.656Z,97341.41
2023-02-17T17:53:58.274Z,97352.44
2023-02-17T17:56:35.182Z,97340.00
2023-02-17T17:59:14.661Z,97338.59
2023-02-17T18:01:47.619Z,97350.59
2023-02-17T18:04:20.615Z,97357.22
2023-02-17T18:06:56.829Z,97364.00
2023-02-17T18:09:34.320Z,97362.78
2023-02-17T18:12:12.536Z,97362.59
2023-02-17T18:14:49.056Z,97365.91
2023-02-17T18:17:23.872Z,97360.41
2023-02-17T18:19:57.346Z,97357.06
2023-02-17T18:22:30.330Z,97356.75
2023-02-17T18:25:03.184Z,97366.38
2023-02-17T18:27:42.518Z,97369.56
2023-02-17T18:30:19.164Z,97369.88
2023-02-17T18:32:53.024Z,97367.19
2023-02-17T18:35:26.031Z,97370.97
2023-02-17T18:37:58.919Z,97359.75
2023-02-17T18:40:31.918Z,97369.38
2023-02-17T18:43:06.825Z,97361.19
2023-02-17T18:45:39.672Z,97367.19
2023-02-17T18:48:12.777Z,97369.69
2023-02-17T18:50:46.338Z,97374.13
2023-02-17T18:53:19.966Z,97367.00
2023-02-17T18:55:52.869Z,97360.69
2023-02-17T18:58:27.475Z,97361.31
2023-02-17T19:01:00.376Z,97364.31
2023-02-17T19:03:33.299Z,97364.94
2023-02-17T19:06:10.475Z,97373.78
2023-02-17T19:08:43.675Z,97362.09
2023-02-17T19:11:18.083Z,97362.09
2023-02-17T19:13:53.392Z,97365.09
2023-02-17T19:16:28.914Z,97360.81
2023-02-17T19:19:02.160Z,97355.63
2023-02-17T19:21:36.417Z,97357.50
2023-02-17T19:24:10.729Z,97348.19
2023-02-17T19:26:44.250Z,97346.63
2023-02-17T19:29:18.692Z,97351.22
2023-02-17T19:31:51.722Z,97346.13
2023-02-17T19:34:24.784Z,97347.22
2023-02-17T19:36:58.390Z,97348.81
2023-02-17T19:39:31.583Z,97353.09
2023-02-17T19:42:05.171Z,97346.44
2023-02-17T19:44:39.398Z,97351.22
2023-02-17T19:47:12.513Z,97355.78
2023-02-17T19:49:45.472Z,97355.13
2023-02-17T19:52:18.424Z,97358.31
2023-02-17T19:54:51.332Z,97358.47
2023-02-17T19:57:24.504Z,97353.56
2023-02-17T19:59:59.169Z,97357.22
2023-02-17T20:02:32.115Z,97364.16
2023-02-17T20:05:06.000Z,97370.00
2023-02-17T20:07:39.207Z,97370.16
2023-02-17T20:10:13.089Z,97364.47
2023-02-17T20:15:20.597Z,97368.88
2023-02-17T20:17:53.568Z,97368.88
2023-02-17T20:20:26.477Z,97369.38
2023-02-17T20:22:59.379Z,97370.66
2023-02-17T20:25:32.345Z,97378.88
2023-02-17T20:28:05.420Z,97375.06
2023-02-17T20:30:39.798Z,97381.69
2023-02-17T20:33:13.289Z,97374.91
2023-02-17T20:35:46.198Z,97382.66
2023-02-17T20:38:19.149Z,97382.31
2023-02-17T20:40:52.390Z,97378.53
2023-02-17T20:43:25.643Z,97388.97
2023-02-17T20:46:00.465Z,97391.03
2023-02-17T20:48:33.558Z,97391.63
2023-02-17T20:51:07.066Z,97398.91
2023-02-17T20:53:40.047Z,97395.44
2023-02-17T20:56:15.160Z,97395.13
2023-02-17T20:58:48.481Z,97385.78
2023-02-17T21:01:22.890Z,97390.38
2023-02-17T21:03:56.499Z,97393.06
2023-02-17T21:06:31.992Z,97401.09
2023-02-17T21:09:07.769Z,97400.34
2023-02-17T21:11:40.870Z,97405.22
2023-02-17T21:14:14.085Z,97400.66
2023-02-17T21:16:48.645Z,97399.56
2023-02-17T21:19:22.115Z,97400.66
2023-02-17T21:21:55.001Z,97406.00
2023-02-17T21:24:28.302Z,97406.00
2023-02-17T21:27:01.199Z,97409.81
2023-02-17T21:29:34.120Z,97408.69
2023-02-17T21:32:08.564Z,97412.97
2023-02-17T21:34:41.517Z,97404.91
2023-02-17T21:37:14.407Z,97406.47
2023-02-17T21:39:47.340Z,97406.94
2023-02-17T21:42:36.198Z,97413.91
2023-02-17T21:45:10.008Z,97418.16
2023-02-17T21:47:44.332Z,97414.69
2023-02-17T21:50:17.590Z,97406.66
2023-02-17T21:52:50.430Z,97411.69
2023-02-17T21:55:23.735Z,97418.66
2023-02-17T21:57:56.687Z,97413.44
2023-02-17T22:00:29.674Z,97419.28
2023-02-17T22:03:03.901Z,97429.88
2023-02-17T22:05:36.787Z,97423.84
2023-02-17T22:08:09.672Z,97429.72
2023-02-17T22:10:43.817Z,97434.91
2023-02-17T22:13:16.794Z,97438.88
2023-02-17T22:15:58.447Z,97436.00
2023-02-17T22:18:32.734Z,97440.28
2023-02-17T22:21:10.247Z,97450.88
2023-02-17T22:23:43.457Z,97450.09
2023-02-17T22:26:18.283Z,97450.56
2023-02-17T22:28:51.439Z,97444.53
2023-02-17T22:31:26.625Z,97447.72
2023-02-17T22:34:04.067Z,97448.97
2023-02-17T22:36:38.546Z,97447.53
2023-02-17T22:39:11.420Z,97456.88
2023-02-17T22:41:44.596Z,97461.63
2023-02-17T22:44:17.498Z,97458.94
2023-02-17T22:46:50.533Z,97449.78
2023-02-17T22:49:24.889Z,97457.19
2023-02-17T22:51:57.848Z,97460.16
2023-02-17T22:54:32.164Z,97459.06
2023-02-17T22:57:05.156Z,97455.47
2023-02-17T22:59:38.106Z,97458.44
2023-02-17T23:02:11.033Z,97455.16
2023-02-17T23:04:45.373Z,97457.03
2023-02-17T23:07:18.371Z,97456.38
2023-02-17T23:09:51.413Z,97453.09
2023-02-17T23:12:25.910Z,97455.94
2023-02-17T23:14:59.437Z,97458.75
2023-02-17T23:17:52.983Z,97460.34
2023-02-17T23:20:27.341Z,97453.25
2023-02-17T23:23:00.298Z,97451.78
2023-02-17T23:25:33.312Z,97448.97
2023-02-17T23:28:07.176Z,97454.94
2023-02-17T23:30:42.169Z,97460.91
2023-02-17T23:33:15.461Z,97458.41
2023-02-17T23:35:50.297Z,97454.75
2023-02-17T23:38:23.345Z,97447.97
2023-02-17T23:40:56.337Z,97452.38
2023-02-17T23:43:29.821Z,97455.69
2023-02-17T23:46:03.061Z,97455.03
2023-02-17T23:48:35.992Z,97451.09
2023-02-17T23:51:10.611Z,97447.91
2023-02-17T23:53:43.677Z,97453.13
2023-02-17T23:56:19.710Z,97461.47
2023-02-17T23:58:52.906Z,97461.00
